Time;durP1;ratioP1;P1;durP2;ratioP2;P2;SDS_P1;SDS_P2;PMS_P1;PMS_P2;Temp;Humidity;BMP_temperature;BMP_pressure;BME280_temperature;BME280_humidity;BME280_pressure;Samples;Min_cycle;Max_cycle;Signal;HPM_P1;HPM_P2
2021/01/06 00:00:49;;;;;;;12.00;5.57;;;;;;;;;;5058304;28;20505;-58
2021/01/06 00:03:16;;;;;;;10.52;6.07;;;;;;;;;;5055823;28;20040;-58
2021/01/06 00:05:42;;;;;;;9.77;5.70;;;;;;;;;;5065181;28;20060;-59
2021/01/06 00:08:09;;;;;;;12.00;6.13;;;;;;;;;;5051505;28;20040;-58
2021/01/06 00:10:35;;;;;;;13.77;5.65;;;;;;;;;;5054747;28;20032;-58
2021/01/06 00:13:01;;;;;;;10.75;5.45;;;;;;;;;;5040468;28;20040;-58
2021/01/06 00:15:37;;;;;;;11.60;5.95;;;;;;;;;;5056670;28;20043;-58
2021/01/06 00:18:03;;;;;;;8.75;5.05;;;;;;;;;;5055299;28;20039;-58
2021/01/06 00:20:30;;;;;;;14.80;5.32;;;;;;;;;;5048565;28;20032;-58
2021/01/06 00:22:56;;;;;;;9.80;5.30;;;;;;;;;;5054624;28;20037;-58
2021/01/06 00:25:23;;;;;;;9.60;5.13;;;;;;;;;;5053360;28;20040;-58
2021/01/06 00:27:49;;;;;;;12.30;5.60;;;;;;;;;;5057205;28;20055;-58
2021/01/06 00:30:20;;;;;;;10.07;5.88;;;;;;;;;;5057279;28;20036;-59
2021/01/06 00:32:46;;;;;;;10.98;5.57;;;;;;;;;;5052631;28;20036;-59
2021/01/06 00:35:12;;;;;;;12.70;5.72;;;;;;;;;;5055835;28;20047;-58
2021/01/06 00:37:38;;;;;;;9.32;5.55;;;;;;;;;;5052897;28;20107;-59
2021/01/06 00:40:06;;;;;;;12.18;5.22;;;;;;;;;;5049440;28;20051;-59
2021/01/06 00:42:34;;;;;;;11.43;5.78;;;;;;;;;;5052837;28;20163;-58
2021/01/06 00:45:00;;;;;;;10.93;5.57;;;;;;;;;;5063289;28;20040;-59
2021/01/06 00:47:26;;;;;;;13.15;6.10;;;;;;;;;;5054294;28;20047;-58
2021/01/06 00:49:52;;;;;;;9.15;5.82;;;;;;;;;;5057745;28;20650;-58
2021/01/06 00:52:18;;;;;;;11.43;5.20;;;;;;;;;;5053913;28;20025;-58
2021/01/06 00:54:46;;;;;;;13.43;5.45;;;;;;;;;;5058159;28;20043;-59
2021/01/06 00:57:12;;;;;;;12.10;5.40;;;;;;;;;;5063959;28;20036;-59
2021/01/06 00:59:38;;;;;;;13.15;6.18;;;;;;;;;;5051099;28;20043;-58
2021/01/06 01:02:04;;;;;;;14.55;5.07;;;;;;;;;;5035162;28;20024;-58
2021/01/06 01:04:30;;;;;;;11.68;5.93;;;;;;;;;;5054590;28;20075;-58
2021/01/06 01:06:56;;;;;;;9.90;5.70;;;;;;;;;;5058228;28;20039;-59
2021/01/06 01:09:22;;;;;;;13.07;5.72;;;;;;;;;;5061309;28;20029;-58
2021/01/06 01:11:48;;;;;;;10.10;5.55;;;;;;;;;;5054877;28;20104;-58
2021/01/06 01:14:14;;;;;;;12.07;5.63;;;;;;;;;;5057256;28;20066;-57
2021/01/06 01:16:44;;;;;;;14.88;6.45;;;;;;;;;;5054720;28;20036;-58
2021/01/06 01:19:11;;;;;;;11.80;5.78;;;;;;;;;;5055454;28;20123;-58
2021/01/06 01:21:37;;;;;;;13.38;6.15;;;;;;;;;;5054856;28;20069;-58
2021/01/06 01:24:04;;;;;;;11.95;6.13;;;;;;;;;;5062501;28;20385;-58
2021/01/06 01:26:30;;;;;;;15.65;6.85;;;;;;;;;;5057430;28;20497;-58
2021/01/06 01:28:56;;;;;;;15.23;6.32;;;;;;;;;;5046313;28;20584;-57
2021/01/06 01:31:31;;;;;;;13.13;5.75;;;;;;;;;;5031433;28;20047;-58
2021/01/06 01:33:57;;;;;;;17.42;6.40;;;;;;;;;;5057550;28;20040;-58
2021/01/06 01:36:23;;;;;;;14.77;6.70;;;;;;;;;;5059767;28;20036;-58
2021/01/06 01:38:49;;;;;;;13.85;6.50;;;;;;;;;;5052054;28;20391;-58
2021/01/06 01:41:15;;;;;;;14.75;6.25;;;;;;;;;;5046379;28;20033;-58
2021/01/06 01:43:41;;;;;;;18.73;6.55;;;;;;;;;;5049830;28;20631;-58
2021/01/06 01:46:07;;;;;;;13.55;6.10;;;;;;;;;;5060493;28;20116;-58
2021/01/06 01:48:38;;;;;;;12.63;6.25;;;;;;;;;;5054337;28;22082;-58
2021/01/06 01:51:04;;;;;;;12.05;6.38;;;;;;;;;;5054475;28;20434;-58
2021/01/06 01:53:32;;;;;;;11.60;6.63;;;;;;;;;;5040574;28;20634;-58
2021/01/06 01:56:00;;;;;;;10.95;6.45;;;;;;;;;;5053383;28;20502;-58
2021/01/06 01:58:27;;;;;;;18.67;6.78;;;;;;;;;;5048603;28;20070;-58
2021/01/06 02:00:55;;;;;;;17.10;6.88;;;;;;;;;;5041260;28;20044;-58
2021/01/06 02:03:21;;;;;;;13.02;5.97;;;;;;;;;;5055276;28;20040;-57
2021/01/06 02:05:52;;;;;;;14.98;6.45;;;;;;;;;;5057756;28;20060;-58
2021/01/06 02:08:32;;;;;;;14.85;6.15;;;;;;;;;;5050781;28;20029;-58
2021/01/06 02:11:01;;;;;;;12.75;6.38;;;;;;;;;;5051906;28;20086;-58
2021/01/06 02:13:30;;;;;;;13.80;6.65;;;;;;;;;;5054200;28;20090;-58
2021/01/06 02:16:08;;;;;;;12.90;6.72;;;;;;;;;;5063399;28;20041;-59
2021/01/06 02:18:35;;;;;;;13.82;7.07;;;;;;;;;;5056186;28;20036;-58
2021/01/06 02:21:02;;;;;;;15.00;7.00;;;;;;;;;;5053649;28;20545;-58
2021/01/06 02:23:28;;;;;;;15.60;7.93;;;;;;;;;;5055556;28;20024;-58
2021/01/06 02:25:54;;;;;;;14.43;6.80;;;;;;;;;;5049529;28;20509;-58
2021/01/06 02:28:20;;;;;;;14.73;6.82;;;;;;;;;;5048333;28;20143;-58
2021/01/06 02:30:46;;;;;;;15.95;6.78;;;;;;;;;;5049275;28;20047;-58
2021/01/06 02:33:12;;;;;;;15.80;6.72;;;;;;;;;;5055918;28;20547;-58
2021/01/06 02:35:38;;;;;;;15.63;7.22;;;;;;;;;;5051345;28;20063;-58
2021/01/06 02:38:04;;;;;;;16.10;6.93;;;;;;;;;;5053310;28;20574;-58
2021/01/06 02:40:31;;;;;;;15.02;7.20;;;;;;;;;;5054811;28;20163;-58
2021/01/06 02:42:57;;;;;;;15.05;7.00;;;;;;;;;;5054061;28;20040;-58
2021/01/06 02:45:23;;;;;;;14.05;6.28;;;;;;;;;;5055731;28;20754;-59
2021/01/06 02:47:51;;;;;;;15.10;6.70;;;;;;;;;;5058552;28;20036;-58
2021/01/06 02:50:18;;;;;;;13.18;6.93;;;;;;;;;;5034670;28;20040;-58
2021/01/06 02:52:54;;;;;;;12.35;6.82;;;;;;;;;;5060680;28;20045;-59
2021/01/06 02:55:20;;;;;;;12.40;6.97;;;;;;;;;;5039645;28;20046;-58
2021/01/06 02:57:46;;;;;;;16.63;6.43;;;;;;;;;;5052407;28;20025;-58
2021/01/06 03:00:20;;;;;;;15.27;6.35;;;;;;;;;;5048798;28;20056;-58
2021/01/06 03:02:47;;;;;;;16.55;7.03;;;;;;;;;;5046861;28;20075;-58
2021/01/06 03:05:21;;;;;;;13.52;6.13;;;;;;;;;;5035019;28;20181;-58
2021/01/06 03:07:48;;;;;;;13.88;6.93;;;;;;;;;;5055850;28;20044;-58
2021/01/06 03:10:18;;;;;;;11.73;7.05;;;;;;;;;;5059052;28;20106;-58
2021/01/06 03:12:45;;;;;;;13.20;7.05;;;;;;;;;;5059587;28;20392;-58
2021/01/06 03:15:12;;;;;;;12.25;6.32;;;;;;;;;;5053594;28;23082;-58
2021/01/06 03:17:38;;;;;;;15.57;7.25;;;;;;;;;;5037449;28;20093;-58
2021/01/06 03:20:06;;;;;;;15.73;6.65;;;;;;;;;;5053451;28;20043;-59
2021/01/06 03:22:33;;;;;;;17.50;7.05;;;;;;;;;;5056343;28;20036;-58
2021/01/06 03:25:10;;;;;;;13.90;6.70;;;;;;;;;;5054672;28;20138;-58
2021/01/06 03:27:39;;;;;;;15.40;6.78;;;;;;;;;;5038488;28;20498;-58
2021/01/06 03:30:10;;;;;;;12.18;6.80;;;;;;;;;;5054489;28;20067;-58
2021/01/06 03:32:43;;;;;;;12.98;6.93;;;;;;;;;;5049641;28;20135;-57
2021/01/06 03:35:20;;;;;;;14.63;7.13;;;;;;;;;;5040278;28;20033;-58
2021/01/06 03:37:51;;;;;;;12.57;6.28;;;;;;;;;;5060291;28;20116;-58
2021/01/06 03:40:19;;;;;;;17.75;6.72;;;;;;;;;;5056414;28;20040;-58
2021/01/06 03:42:46;;;;;;;12.00;6.57;;;;;;;;;;5057047;28;21639;-58
2021/01/06 03:45:17;;;;;;;12.20;6.13;;;;;;;;;;5057366;28;20050;-58
2021/01/06 03:47:45;;;;;;;11.23;6.25;;;;;;;;;;5058995;28;20056;-58
2021/01/06 03:50:32;;;;;;;10.45;6.35;;;;;;;;;;5046290;28;20833;-58
2021/01/06 03:53:04;;;;;;;10.43;5.97;;;;;;;;;;5053965;28;20393;-58
2021/01/06 03:55:44;;;;;;;14.27;5.80;;;;;;;;;;5051929;28;20039;-58
2021/01/06 03:58:17;;;;;;;12.20;5.93;;;;;;;;;;5059241;28;20040;-58
2021/01/06 04:00:51;;;;;;;12.30;5.47;;;;;;;;;;5043397;28;20044;-58
2021/01/06 04:03:29;;;;;;;11.93;5.63;;;;;;;;;;5053752;28;20032;-58
2021/01/06 04:05:56;;;;;;;8.52;5.03;;;;;;;;;;5057434;28;20425;-59
2021/01/06 04:08:25;;;;;;;13.18;5.55;;;;;;;;;;5056814;28;20032;-58
2021/01/06 04:10:53;;;;;;;9.02;4.93;;;;;;;;;;5050785;28;20574;-58
2021/01/06 04:13:19;;;;;;;7.32;4.65;;;;;;;;;;5053182;28;20405;-57
2021/01/06 04:15:45;;;;;;;12.68;5.38;;;;;;;;;;5053311;28;20149;-58
2021/01/06 04:18:11;;;;;;;10.93;4.65;;;;;;;;;;5061985;28;20036;-58
2021/01/06 04:20:38;;;;;;;8.80;4.97;;;;;;;;;;5050707;28;20032;-58
2021/01/06 04:23:15;;;;;;;12.93;5.38;;;;;;;;;;5053632;28;20078;-58
2021/01/06 04:25:51;;;;;;;10.68;5.50;;;;;;;;;;5053307;28;20115;-59
2021/01/06 04:28:22;;;;;;;13.77;5.15;;;;;;;;;;5058850;28;20040;-58
2021/01/06 04:31:02;;;;;;;11.15;4.45;;;;;;;;;;5047734;28;20095;-58
2021/01/06 04:33:31;;;;;;;7.93;4.57;;;;;;;;;;5049616;28;20032;-58
2021/01/06 04:35:59;;;;;;;9.65;5.40;;;;;;;;;;5050885;28;20044;-58
2021/01/06 04:38:36;;;;;;;11.23;5.30;;;;;;;;;;5048899;28;20064;-59
2021/01/06 04:41:14;;;;;;;8.98;4.55;;;;;;;;;;5052050;28;20036;-59
2021/01/06 04:43:58;;;;;;;9.77;4.53;;;;;;;;;;5046969;28;20047;-58
2021/01/06 04:46:42;;;;;;;8.50;4.82;;;;;;;;;;5051715;28;20484;-58
2021/01/06 04:49:15;;;;;;;12.60;5.13;;;;;;;;;;5049863;28;20040;-58
2021/01/06 04:51:58;;;;;;;7.78;4.40;;;;;;;;;;5048918;28;20052;-59
2021/01/06 04:54:24;;;;;;;12.65;4.30;;;;;;;;;;5048576;28;20044;-58
2021/01/06 04:57:14;;;;;;;8.57;4.70;;;;;;;;;;5054093;28;20074;-58
2021/01/06 04:59:58;;;;;;;7.95;4.90;;;;;;;;;;5043248;28;20051;-58
2021/01/06 05:02:24;;;;;;;9.13;4.63;;;;;;;;;;5041417;28;20583;-58
2021/01/06 05:04:50;;;;;;;14.77;4.60;;;;;;;;;;5047820;28;20140;-57
2021/01/06 05:07:28;;;;;;;12.20;5.30;;;;;;;;;;5052041;28;20650;-58
2021/01/06 05:10:01;;;;;;;9.48;5.18;;;;;;;;;;5045018;28;20565;-58
2021/01/06 05:12:33;;;;;;;10.52;4.60;;;;;;;;;;5048754;28;20060;-58
2021/01/06 05:15:02;;;;;;;8.95;4.75;;;;;;;;;;5044556;28;20040;-59
2021/01/06 05:17:28;;;;;;;14.20;5.13;;;;;;;;;;5051549;28;20689;-58
2021/01/06 05:19:54;;;;;;;6.53;4.25;;;;;;;;;;5049917;28;20086;-58
2021/01/06 05:22:20;;;;;;;8.63;4.22;;;;;;;;;;5048905;28;20074;-58
2021/01/06 05:24:47;;;;;;;7.45;4.18;;;;;;;;;;5044096;28;20032;-59
2021/01/06 05:27:13;;;;;;;10.10;4.82;;;;;;;;;;5050594;28;20047;-58
2021/01/06 05:29:40;;;;;;;11.95;5.15;;;;;;;;;;5041141;28;20678;-58
2021/01/06 05:32:06;;;;;;;9.10;4.45;;;;;;;;;;5040516;28;21279;-58
2021/01/06 05:34:34;;;;;;;8.80;4.75;;;;;;;;;;5045340;28;20764;-58
2021/01/06 05:37:01;;;;;;;8.13;4.05;;;;;;;;;;5049552;28;20390;-58
2021/01/06 05:39:28;;;;;;;6.45;3.83;;;;;;;;;;5052449;28;20055;-58
2021/01/06 05:42:00;;;;;;;9.88;4.47;;;;;;;;;;5048861;28;20082;-58
2021/01/06 05:44:26;;;;;;;13.80;4.53;;;;;;;;;;5027490;28;20409;-58
2021/01/06 05:46:52;;;;;;;8.60;3.88;;;;;;;;;;5047842;28;20028;-58
2021/01/06 05:49:22;;;;;;;8.57;4.20;;;;;;;;;;5048744;28;20226;-58
2021/01/06 05:51:54;;;;;;;8.10;4.50;;;;;;;;;;5046463;28;20550;-62
2021/01/06 05:54:22;;;;;;;7.70;3.88;;;;;;;;;;5047547;28;20036;-59
2021/01/06 05:57:10;;;;;;;9.95;4.53;;;;;;;;;;5036894;28;20059;-58
2021/01/06 05:59:45;;;;;;;7.07;3.85;;;;;;;;;;5046409;28;20540;-58
2021/01/06 06:02:24;;;;;;;8.93;4.07;;;;;;;;;;5051840;28;20048;-58
2021/01/06 06:05:08;;;;;;;5.95;3.83;;;;;;;;;;5047445;28;20043;-58
2021/01/06 06:07:37;;;;;;;6.78;3.63;;;;;;;;;;5045070;28;20361;-58
2021/01/06 06:10:06;;;;;;;6.70;3.45;;;;;;;;;;5047605;28;20068;-58
2021/01/06 06:12:41;;;;;;;8.00;3.55;;;;;;;;;;5053472;28;20051;-57
2021/01/06 06:15:14;;;;;;;6.15;3.40;;;;;;;;;;5057615;28;20048;-60
2021/01/06 06:17:40;;;;;;;11.38;3.67;;;;;;;;;;5058611;28;20128;-58
2021/01/06 06:20:23;;;;;;;5.40;3.50;;;;;;;;;;5059080;28;20039;-58
2021/01/06 06:23:08;;;;;;;6.13;3.50;;;;;;;;;;5048274;28;20616;-58
2021/01/06 06:25:36;;;;;;;5.15;3.13;;;;;;;;;;5059717;28;20037;-58
2021/01/06 06:28:22;;;;;;;6.10;3.80;;;;;;;;;;5055823;28;20032;-58
2021/01/06 06:31:11;;;;;;;6.78;3.40;;;;;;;;;;5049516;28;20055;-58
2021/01/06 06:33:38;;;;;;;7.40;3.88;;;;;;;;;;5037862;28;20054;-58
2021/01/06 06:36:12;;;;;;;6.32;3.60;;;;;;;;;;5060912;28;20078;-59
2021/01/06 06:38:40;;;;;;;7.63;3.70;;;;;;;;;;5061851;28;20378;-58
2021/01/06 06:41:10;;;;;;;4.15;3.17;;;;;;;;;;5065000;28;20115;-58
2021/01/06 06:43:44;;;;;;;10.20;3.60;;;;;;;;;;5063053;28;20489;-58
2021/01/06 06:46:28;;;;;;;9.55;3.05;;;;;;;;;;5062182;28;20496;-58
2021/01/06 06:48:54;;;;;;;8.38;3.85;;;;;;;;;;5057249;28;20159;-58
2021/01/06 06:51:23;;;;;;;4.13;3.33;;;;;;;;;;5060288;28;21165;-58
2021/01/06 06:53:57;;;;;;;4.82;3.30;;;;;;;;;;5056845;28;20097;-58
2021/01/06 06:56:33;;;;;;;6.22;3.58;;;;;;;;;;5062926;28;20033;-58
2021/01/06 06:59:05;;;;;;;4.30;3.10;;;;;;;;;;5053428;28;20058;-58
2021/01/06 07:01:36;;;;;;;5.70;3.15;;;;;;;;;;5053952;28;21299;-58
2021/01/06 07:04:04;;;;;;;8.75;3.10;;;;;;;;;;5062725;28;20064;-58
2021/01/06 07:06:31;;;;;;;6.07;3.30;;;;;;;;;;5056964;28;21010;-58
2021/01/06 07:08:59;;;;;;;5.15;2.70;;;;;;;;;;5057031;28;20048;-58
2021/01/06 07:11:27;;;;;;;5.70;3.67;;;;;;;;;;5056094;28;20064;-58
2021/01/06 07:14:01;;;;;;;5.18;2.97;;;;;;;;;;5065979;28;20040;-57
2021/01/06 07:16:31;;;;;;;6.10;2.67;;;;;;;;;;5065360;28;20173;-57
2021/01/06 07:19:04;;;;;;;7.07;3.20;;;;;;;;;;5063117;28;20367;-58
2021/01/06 07:21:34;;;;;;;4.25;2.78;;;;;;;;;;5063686;28;20115;-58
2021/01/06 07:24:01;;;;;;;6.80;3.13;;;;;;;;;;5061935;28;21795;-59
2021/01/06 07:26:29;;;;;;;4.93;2.60;;;;;;;;;;5064872;28;20076;-58
2021/01/06 07:29:06;;;;;;;8.75;3.33;;;;;;;;;;5060322;28;20036;-58
2021/01/06 07:31:40;;;;;;;5.75;2.75;;;;;;;;;;5069842;28;20040;-57
2021/01/06 07:34:07;;;;;;;6.10;2.97;;;;;;;;;;5063986;28;20037;-58
2021/01/06 07:36:44;;;;;;;4.38;2.95;;;;;;;;;;5066333;28;20036;-58
2021/01/06 07:39:18;;;;;;;4.53;2.97;;;;;;;;;;5063073;28;20073;-58
2021/01/06 07:41:44;;;;;;;4.35;2.85;;;;;;;;;;5025604;28;20789;-58
2021/01/06 07:44:23;;;;;;;4.72;3.00;;;;;;;;;;5066866;28;20021;-58
2021/01/06 07:47:01;;;;;;;7.53;2.75;;;;;;;;;;5047046;28;20048;-59
2021/01/06 07:49:27;;;;;;;10.48;3.45;;;;;;;;;;5048230;28;20040;-59
2021/01/06 07:52:02;;;;;;;5.50;2.75;;;;;;;;;;5049245;28;20816;-58
2021/01/06 07:54:31;;;;;;;5.13;3.15;;;;;;;;;;5036852;28;20134;-62
2021/01/06 07:57:09;;;;;;;6.03;3.28;;;;;;;;;;5054235;28;20040;-58
2021/01/06 07:59:46;;;;;;;4.70;2.92;;;;;;;;;;5033599;28;20522;-58
2021/01/06 08:02:25;;;;;;;5.82;2.78;;;;;;;;;;5057900;28;20040;-58
2021/01/06 08:04:57;;;;;;;6.15;3.28;;;;;;;;;;5057520;28;20032;-58
2021/01/06 08:07:24;;;;;;;6.40;3.38;;;;;;;;;;5060060;28;20033;-58
2021/01/06 08:09:51;;;;;;;7.18;4.03;;;;;;;;;;5054130;28;20647;-58
2021/01/06 08:12:36;;;;;;;6.70;3.35;;;;;;;;;;5056981;28;20043;-58
2021/01/06 08:15:17;;;;;;;6.43;3.58;;;;;;;;;;5054059;28;20513;-58
2021/01/06 08:17:47;;;;;;;9.10;4.28;;;;;;;;;;5051326;28;21023;-58
2021/01/06 08:20:19;;;;;;;9.68;3.78;;;;;;;;;;5052694;28;20044;-58
2021/01/06 08:22:53;;;;;;;7.65;3.85;;;;;;;;;;5040612;28;20090;-58
2021/01/06 08:25:21;;;;;;;10.20;3.92;;;;;;;;;;5064614;28;20117;-58
2021/01/06 08:27:47;;;;;;;6.97;4.22;;;;;;;;;;5057455;28;20036;-58
2021/01/06 08:30:19;;;;;;;5.38;3.72;;;;;;;;;;5053077;28;20443;-58
2021/01/06 08:32:46;;;;;;;8.10;4.32;;;;;;;;;;5057262;28;20645;-58
2021/01/06 08:35:17;;;;;;;8.38;4.05;;;;;;;;;;5055067;28;20048;-59
2021/01/06 08:37:43;;;;;;;7.57;4.05;;;;;;;;;;5055323;28;20024;-59
2021/01/06 08:40:29;;;;;;;7.88;4.38;;;;;;;;;;5055934;28;20032;-59
2021/01/06 08:42:55;;;;;;;11.35;4.75;;;;;;;;;;5056457;28;20067;-59
2021/01/06 08:45:21;;;;;;;10.77;4.43;;;;;;;;;;5050409;28;20048;-59
2021/01/06 08:47:47;;;;;;;9.98;4.82;;;;;;;;;;5060847;28;20036;-59
2021/01/06 08:50:16;;;;;;;8.30;4.60;;;;;;;;;;5062027;28;20704;-58
2021/01/06 08:52:43;;;;;;;9.43;4.80;;;;;;;;;;5063562;28;20066;-58
2021/01/06 08:55:20;;;;;;;8.77;4.22;;;;;;;;;;5062794;28;20032;-58
2021/01/06 08:57:56;;;;;;;8.65;4.63;;;;;;;;;;5060584;28;20043;-59
2021/01/06 09:00:25;;;;;;;8.95;4.28;;;;;;;;;;5058676;28;20028;-59
2021/01/06 09:02:55;;;;;;;7.35;4.10;;;;;;;;;;5059548;28;20033;-58
2021/01/06 09:05:40;;;;;;;9.25;4.15;;;;;;;;;;5035304;28;21730;-58
2021/01/06 09:08:21;;;;;;;7.80;4.38;;;;;;;;;;5056368;28;20041;-58
2021/01/06 09:11:10;;;;;;;9.88;4.25;;;;;;;;;;5054920;28;20054;-58
2021/01/06 09:13:36;;;;;;;10.65;4.88;;;;;;;;;;5049001;28;20079;-58
2021/01/06 09:16:05;;;;;;;8.00;4.40;;;;;;;;;;5043187;28;20105;-58
2021/01/06 09:18:37;;;;;;;9.60;4.28;;;;;;;;;;5058619;28;20785;-58
2021/01/06 09:21:17;;;;;;;7.45;4.22;;;;;;;;;;5049074;28;20040;-58
2021/01/06 09:23:53;;;;;;;8.80;5.55;;;;;;;;;;5052276;28;20085;-57
2021/01/06 09:26:22;;;;;;;11.82;5.28;;;;;;;;;;5052471;28;20036;-58
2021/01/06 09:28:52;;;;;;;8.55;4.78;;;;;;;;;;5054085;28;20040;-58
2021/01/06 09:31:18;;;;;;;9.70;4.88;;;;;;;;;;5063576;28;20085;-58
2021/01/06 09:33:45;;;;;;;13.05;4.97;;;;;;;;;;5054150;28;20521;-58
2021/01/06 09:36:12;;;;;;;10.98;5.40;;;;;;;;;;5056577;28;20037;-58
2021/01/06 09:38:44;;;;;;;11.32;5.80;;;;;;;;;;5054196;28;20093;-57
2021/01/06 09:41:14;;;;;;;11.32;5.53;;;;;;;;;;5056281;28;20631;-58
2021/01/06 09:43:39;;;;;;;14.02;7.07;;;;;;;;;;5055943;28;20614;-58
2021/01/06 09:46:26;;;;;;;12.70;5.47;;;;;;;;;;5048897;28;20083;-58
2021/01/06 09:48:55;;;;;;;13.63;6.35;;;;;;;;;;5035949;28;20724;-57
2021/01/06 09:51:21;;;;;;;11.63;6.22;;;;;;;;;;5050358;28;20569;-58
2021/01/06 09:53:51;;;;;;;12.98;6.03;;;;;;;;;;5052247;28;20041;-58
2021/01/06 09:56:19;;;;;;;12.93;6.05;;;;;;;;;;5051147;28;20560;-58
2021/01/06 09:58:48;;;;;;;9.68;5.70;;;;;;;;;;5058852;28;20394;-58
2021/01/06 10:01:29;;;;;;;11.85;6.38;;;;;;;;;;5060656;28;20055;-58
2021/01/06 10:03:56;;;;;;;13.40;5.80;;;;;;;;;;5059049;28;20122;-58
2021/01/06 10:06:35;;;;;;;12.50;5.70;;;;;;;;;;5057037;28;20151;-58
2021/01/06 10:09:23;;;;;;;12.57;5.72;;;;;;;;;;5056717;28;20097;-59
2021/01/06 10:11:49;;;;;;;14.18;5.65;;;;;;;;;;5048997;28;20234;-58
2021/01/06 10:14:21;;;;;;;18.13;6.60;;;;;;;;;;5062662;28;20440;-58
2021/01/06 10:16:57;;;;;;;16.45;6.13;;;;;;;;;;5060866;28;20115;-57
2021/01/06 10:19:42;;;;;;;14.13;6.53;;;;;;;;;;5058341;28;20482;-58
2021/01/06 10:22:14;;;;;;;10.05;6.07;;;;;;;;;;5059787;28;20040;-58
2021/01/06 10:24:43;;;;;;;8.75;5.13;;;;;;;;;;5057646;28;20097;-58
2021/01/06 10:27:29;;;;;;;13.05;5.57;;;;;;;;;;5058020;28;20062;-58
2021/01/06 10:29:56;;;;;;;12.38;6.13;;;;;;;;;;5059018;28;20498;-58
2021/01/06 10:32:28;;;;;;;16.10;6.15;;;;;;;;;;5058656;28;20035;-58
2021/01/06 10:35:08;;;;;;;11.35;6.03;;;;;;;;;;5057663;28;20032;-58
2021/01/06 10:37:34;;;;;;;13.88;6.13;;;;;;;;;;5067651;28;20086;-58
2021/01/06 10:40:16;;;;;;;10.07;5.20;;;;;;;;;;5062694;28;20436;-58
2021/01/06 10:42:42;;;;;;;11.25;5.85;;;;;;;;;;5065499;28;20033;-59
2021/01/06 10:45:10;;;;;;;14.25;6.25;;;;;;;;;;5067715;28;20028;-58
2021/01/06 10:47:42;;;;;;;10.65;5.95;;;;;;;;;;5067986;28;20545;-59
2021/01/06 10:50:23;;;;;;;10.15;5.60;;;;;;;;;;5069915;28;20371;-58
2021/01/06 10:52:55;;;;;;;10.90;5.50;;;;;;;;;;5068510;28;20037;-58
2021/01/06 10:55:32;;;;;;;9.45;5.80;;;;;;;;;;5067461;28;20036;-58
2021/01/06 10:58:18;;;;;;;10.98;5.35;;;;;;;;;;5070624;28;20031;-58
2021/01/06 11:01:02;;;;;;;12.32;5.50;;;;;;;;;;5069727;28;20032;-58
2021/01/06 11:03:28;;;;;;;14.40;5.88;;;;;;;;;;5069531;28;21671;-58
2021/01/06 11:05:54;;;;;;;13.73;6.03;;;;;;;;;;5064386;28;20063;-58
2021/01/06 11:08:26;;;;;;;12.40;6.45;;;;;;;;;;5069444;28;20082;-58
2021/01/06 11:11:11;;;;;;;12.93;6.60;;;;;;;;;;5071583;28;20035;-58
2021/01/06 11:13:56;;;;;;;10.80;5.65;;;;;;;;;;5064909;28;20461;-59
2021/01/06 11:16:26;;;;;;;11.85;5.63;;;;;;;;;;5066644;28;20028;-58
2021/01/06 11:18:54;;;;;;;10.95;5.78;;;;;;;;;;5066228;28;20048;-58
2021/01/06 11:21:24;;;;;;;15.38;6.32;;;;;;;;;;5066213;28;20077;-58
2021/01/06 11:23:51;;;;;;;10.82;5.80;;;;;;;;;;5057922;28;20312;-58
2021/01/06 11:26:24;;;;;;;11.98;5.78;;;;;;;;;;5056118;28;20043;-58
2021/01/06 11:28:56;;;;;;;10.73;5.22;;;;;;;;;;5055369;28;20068;-58
2021/01/06 11:31:27;;;;;;;12.63;5.60;;;;;;;;;;5058276;28;20214;-58
2021/01/06 11:34:16;;;;;;;12.23;5.90;;;;;;;;;;5062437;28;20044;-58
2021/01/06 11:36:46;;;;;;;12.30;6.45;;;;;;;;;;5057356;28;20032;-58
2021/01/06 11:39:14;;;;;;;11.70;6.47;;;;;;;;;;5062574;28;20040;-58
2021/01/06 11:41:46;;;;;;;10.57;6.03;;;;;;;;;;5064732;28;20032;-58
2021/01/06 11:44:33;;;;;;;11.75;7.00;;;;;;;;;;5067166;28;20083;-58
2021/01/06 11:47:17;;;;;;;9.80;6.18;;;;;;;;;;5059440;28;20070;-62
2021/01/06 11:49:44;;;;;;;12.95;6.68;;;;;;;;;;5040401;28;20370;-62
2021/01/06 11:52:28;;;;;;;12.13;7.15;;;;;;;;;;5063160;28;20033;-62
2021/01/06 11:54:56;;;;;;;12.50;6.47;;;;;;;;;;5063021;28;20432;-61
2021/01/06 11:57:41;;;;;;;10.50;6.35;;;;;;;;;;5066488;28;20371;-58
2021/01/06 12:00:09;;;;;;;14.07;5.88;;;;;;;;;;5063611;28;20128;-58
2021/01/06 12:02:38;;;;;;;11.65;6.28;;;;;;;;;;5065887;28;20043;-58
2021/01/06 12:05:07;;;;;;;12.93;6.22;;;;;;;;;;5066010;28;20116;-61
2021/01/06 12:07:51;;;;;;;11.40;6.07;;;;;;;;;;5062257;28;20067;-60
2021/01/06 12:10:27;;;;;;;10.98;6.05;;;;;;;;;;5063348;28;20076;-60
2021/01/06 12:13:00;;;;;;;10.88;6.22;;;;;;;;;;5064278;28;20028;-59
2021/01/06 12:15:44;;;;;;;10.38;6.03;;;;;;;;;;5064090;28;20036;-59
2021/01/06 12:18:25;;;;;;;12.70;6.28;;;;;;;;;;5061910;28;20032;-59
2021/01/06 12:20:51;;;;;;;13.57;5.82;;;;;;;;;;5062491;28;21838;-59
2021/01/06 12:23:19;;;;;;;11.05;6.07;;;;;;;;;;5066873;28;20028;-59
2021/01/06 12:25:53;;;;;;;14.32;6.85;;;;;;;;;;5063213;28;20028;-59
2021/01/06 12:28:26;;;;;;;12.32;6.70;;;;;;;;;;5061196;28;20682;-58
2021/01/06 12:31:12;;;;;;;11.60;6.45;;;;;;;;;;5058195;28;20070;-59
2021/01/06 12:33:38;;;;;;;10.10;6.25;;;;;;;;;;5064933;28;20028;-59
2021/01/06 12:36:10;;;;;;;13.30;6.38;;;;;;;;;;5063783;28;20036;-58
2021/01/06 12:38:36;;;;;;;15.38;6.80;;;;;;;;;;5062828;28;20068;-58
2021/01/06 12:41:06;;;;;;;12.85;6.38;;;;;;;;;;5062047;28;20044;-57
2021/01/06 12:43:45;;;;;;;14.38;7.35;;;;;;;;;;5056655;28;20044;-58
2021/01/06 12:46:14;;;;;;;12.55;5.95;;;;;;;;;;5044759;28;20044;-58
2021/01/06 12:48:51;;;;;;;14.45;7.05;;;;;;;;;;5058532;28;20894;-58
2021/01/06 12:51:23;;;;;;;20.52;9.13;;;;;;;;;;5058378;28;20048;-59
2021/01/06 12:53:53;;;;;;;25.70;12.40;;;;;;;;;;5057958;28;20063;-58
2021/01/06 12:56:34;;;;;;;20.10;10.50;;;;;;;;;;5056148;28;20141;-58
2021/01/06 12:59:06;;;;;;;17.13;9.18;;;;;;;;;;5055847;28;20820;-58
2021/01/06 13:01:41;;;;;;;18.05;10.15;;;;;;;;;;5053785;28;20076;-58
2021/01/06 13:04:08;;;;;;;13.48;7.85;;;;;;;;;;5041315;28;20060;-58
2021/01/06 13:06:34;;;;;;;16.48;7.68;;;;;;;;;;5055773;28;20040;-58
2021/01/06 13:09:16;;;;;;;13.75;6.78;;;;;;;;;;5046734;28;20040;-58
2021/01/06 13:11:49;;;;;;;14.52;7.88;;;;;;;;;;5057168;28;20569;-58
2021/01/06 13:14:25;;;;;;;13.32;7.32;;;;;;;;;;5062003;28;20136;-58
2021/01/06 13:17:02;;;;;;;13.80;7.38;;;;;;;;;;5055146;28;20151;-59
2021/01/06 13:19:28;;;;;;;12.00;6.88;;;;;;;;;;5043040;28;20047;-58
2021/01/06 13:22:14;;;;;;;13.75;7.43;;;;;;;;;;5057157;28;20033;-58
2021/01/06 13:24:41;;;;;;;14.95;7.35;;;;;;;;;;5057084;28;20036;-59
2021/01/06 13:27:07;;;;;;;16.38;8.35;;;;;;;;;;5056277;28;20533;-59
2021/01/06 13:29:59;;;;;;;15.43;8.05;;;;;;;;;;5060695;28;20048;-58
2021/01/06 13:32:41;;;;;;;17.55;8.23;;;;;;;;;;5048833;28;20052;-58
2021/01/06 13:35:14;;;;;;;16.75;8.30;;;;;;;;;;5063366;28;20032;-58
2021/01/06 13:37:40;;;;;;;18.25;9.48;;;;;;;;;;5065477;28;20055;-59
2021/01/06 13:40:09;;;;;;;15.30;8.55;;;;;;;;;;5063581;28;20107;-58
2021/01/06 13:42:37;;;;;;;16.33;8.55;;;;;;;;;;5063346;28;20072;-58
2021/01/06 13:45:13;;;;;;;12.27;7.65;;;;;;;;;;5065998;28;20043;-57
2021/01/06 13:47:45;;;;;;;16.42;7.68;;;;;;;;;;5061393;28;20045;-59
2021/01/06 13:50:23;;;;;;;14.85;6.88;;;;;;;;;;5065226;28;20040;-58
2021/01/06 13:53:28;;;;;;;9.65;5.45;;;;;;;;;;5065644;28;20081;-58
2021/01/06 13:56:03;;;;;;;11.95;5.57;;;;;;;;;;4990645;28;20514;-58
2021/01/06 13:58:29;;;;;;;9.80;6.22;;;;;;;;;;4989745;28;20058;-58
2021/01/06 14:01:07;;;;;;;13.07;6.32;;;;;;;;;;5031084;28;20211;-58
2021/01/06 14:03:40;;;;;;;8.02;5.43;;;;;;;;;;5069641;28;20050;-58
2021/01/06 14:06:12;;;;;;;10.25;5.63;;;;;;;;;;5064234;28;20054;-58
2021/01/06 14:08:53;;;;;;;11.98;6.22;;;;;;;;;;5063771;28;20036;-58
2021/01/06 14:11:30;;;;;;;10.70;6.07;;;;;;;;;;5070276;28;20044;-57
2021/01/06 14:14:12;;;;;;;10.95;5.45;;;;;;;;;;5068997;28;20673;-58
2021/01/06 14:16:47;;;;;;;8.98;5.25;;;;;;;;;;5066461;28;20040;-57
2021/01/06 14:19:32;;;;;;;8.70;5.22;;;;;;;;;;5068092;28;20054;-58
2021/01/06 14:22:05;;;;;;;8.95;5.40;;;;;;;;;;5063980;28;20047;-58
2021/01/06 14:24:31;;;;;;;11.18;5.68;;;;;;;;;;5067680;28;20042;-58
2021/01/06 14:27:07;;;;;;;10.82;4.68;;;;;;;;;;5063911;28;20490;-58
2021/01/06 14:29:41;;;;;;;7.75;5.05;;;;;;;;;;5065287;28;20043;-58
2021/01/06 14:32:20;;;;;;;10.75;5.40;;;;;;;;;;5065768;28;20068;-58
2021/01/06 14:35:07;;;;;;;9.68;5.68;;;;;;;;;;5065419;28;20143;-58
2021/01/06 14:37:36;;;;;;;11.48;5.75;;;;;;;;;;5062925;28;20489;-59
2021/01/06 14:40:07;;;;;;;8.82;5.13;;;;;;;;;;5059570;28;20044;-58
2021/01/06 14:42:33;;;;;;;11.65;6.30;;;;;;;;;;5062581;28;20478;-58
2021/01/06 14:44:59;;;;;;;12.23;5.75;;;;;;;;;;5063746;28;20119;-58
2021/01/06 14:47:40;;;;;;;12.50;5.75;;;;;;;;;;5063632;28;20062;-58
2021/01/06 14:50:12;;;;;;;9.25;5.75;;;;;;;;;;5062865;28;20147;-58
2021/01/06 14:52:53;;;;;;;9.93;6.32;;;;;;;;;;5053438;28;20067;-57
2021/01/06 14:55:27;;;;;;;15.30;6.88;;;;;;;;;;5065374;28;20028;-58
2021/01/06 14:58:09;;;;;;;13.50;7.50;;;;;;;;;;5068896;28;20048;-58
2021/01/06 15:00:54;;;;;;;12.50;6.38;;;;;;;;;;5069140;28;20370;-58